Mäntsälä Airport

EFMN · 新地区, 芬兰

使用的METAR站距离机场41 km。
罗盘
风向 的 风向 260° Mäntsälä Airport 4/22
风: 11 kt, 4 beaufort

9 kt

7 kt
改变
0 ft 1.000 2.000 3.000 4.000 5.000
Cloud Cloud
FEW 4.200
METAR EFHK 191720Z 26011KT 9999 FEW042 17/07 Q1002 NOSIG

METAR Mäntsälä Airport - EFMN

Mäntsälä Airport是,芬兰中的小机场。 该机场位于纬度60,57222和经度25,50863。 该机场有一条跑道: 4/22. 本场的ICAO机场代码为EFMN。 机场在Finland FIR中。

该航空气象观测是针对Helsinki Vantaa Airport在2024年6月19日 20:20, 当地时间进行的。

机场观察

风向为260°,速度为11 kt。

可见度为10 km 或者更多。

有几云在4.200 ft的高度。 没有观察到天花板。

温度和风寒是17 °C。 露点为7 °C,相对湿度为52%。 海平面上的气压为1002 hPa (QNH)。

白天

今天,太阳从03:46升起,在22:52降落。 这适用于Mäntsälä Airport,世界夏令时可能有所不同。 当地时间与世界标准时间之间的时差为+3 小时。 夏令时目前正在进行中。

公司介绍

我们没有关于这个机场的公司信息。

体会

到Vliegles.nl去找飞行课程,跳伞和其他飞行体验。 浏览页面,了解Mäntsälä Airport附近所有可用的活动。 你也可以使用搜索功能来寻找你所在地附近的特定飞行课程、跳伞或其他飞行体验。

跑道

Id 标题 侧风 逆风 侧风 %
4/22 042°-222° 7 kt 9 kt 62 %

逆风成分最大的方向会被突出显示,并用于横风计算。 这并不一定意味着这个方向在使用。

乌云

4.200 ft FEW 几云

温度 & 天气

温度 17 °C
露点 7 °C
相对湿度 52%
Kp-index 2 (0-9)

白天

日出
03:51
中午
13:21
日落
22:51 (2:05)

小工具

你想在你的网站上有一个关于Mäntsälä Airport的当前航空天气(METAR)的小部件吗?

显示HTML代码
报告变更